This is the latest recevied weather packets stored in our database for station/object W7TTE. If no packets are shown the sender has not sent any weather packets the latest 10 day(s).
| Time | Temp. | Humidity | Pressure | Rain* | Wind** | Luminosity | Snow |
|---|---|---|---|---|---|---|---|
| 1777481342 | 26.11° C | 20% | 1017.4 hPa | 0 mm | - | 582 W/m² | - |
| 1777481039 | 26.11° C | 21% | 1017.5 hPa | 0 mm | - | 576 W/m² | - |
| 1777480735 | 25.56° C | 21% | 1017.6 hPa | 0 mm | - | 563 W/m² | - |
| 1777480432 | 25.56° C | 22% | 1017.7 hPa | 0 mm | - | 550 W/m² | - |
| 1777480128 | 25.56° C | 22% | 1017.6 hPa | 0 mm | - | 535 W/m² | - |
| 1777479824 | 25° C | 22% | 1017.8 hPa | 0 mm | - | 522 W/m² | - |
| 1777479522 | 25° C | 21% | 1017.7 hPa | 0 mm | - | 505 W/m² | - |
| 1777478915 | 24.44° C | 24% | 1017.4 hPa | 0 mm | - | 476 W/m² | - |
| 1777478612 | 23.89° C | 24% | 1017.4 hPa | 0 mm | - | 461 W/m² | - |
| 1777478006 | 23.89° C | 23% | 1017.4 hPa | 0 mm | - | 429 W/m² | - |
| 1777477094 | 23.33° C | 25% | 1017.6 hPa | 0 mm | - | 378 W/m² | - |
| 1777476792 | 23.33° C | 25% | 1017.5 hPa | 0 mm | - | 368 W/m² | - |
| 1777476488 | 22.78° C | 25% | 1017.7 hPa | 0 mm | - | 355 W/m² | - |
| 1777476185 | 22.22° C | 26% | 1017.8 hPa | 0 mm | - | 296 W/m² | - |
| 1777475577 | 22.78° C | 26% | 1017.8 hPa | 0 mm | - | 307 W/m² | - |
| 1777475273 | 23.33° C | 25% | 1017.9 hPa | 0 mm | - | 300 W/m² | - |
| 1777474664 | 22.22° C | 24% | 1017.8 hPa | 0 mm | - | 257 W/m² | - |
| 1777473148 | 19.44° C | 28% | 1017.8 hPa | 0 mm | - | 190 W/m² | - |
| 1777472238 | 17.22° C | 31% | 1017.5 hPa | 0 mm | - | 112 W/m² | - |
| 1777471024 | 15.56° C | 31% | 1017.4 hPa | 0 mm | - | 71 W/m² | - |
| 1777469810 | 13.89° C | 36% | 1017.1 hPa | 0 mm | - | 47 W/m² | - |
| 1777469506 | 13.89° C | 34% | 1017.3 hPa | 0 mm | - | 36 W/m² | - |
| 1777469201 | 13.89° C | 33% | 1017.4 hPa | 0 mm | - | 29 W/m² | - |
| 1777468598 | 13.89° C | 32% | 1017.1 hPa | 0 mm | - | 20 W/m² | - |
| 1777468294 | 13.89° C | 36% | 1017.2 hPa | 0 mm | - | 18 W/m² | - |
* Rain latest hour (hover to see other rain measurements)
** Current wind speed in m/s (hover to see current wind gust speed)